Portada
METAR-TAF:

METAR-TAF

Aeropuertos :

Aeropuerto Les Eplatures

La Chaux-de-Fonds, Suiza

latitud: 47-05-03N, longitud: 006-47-37E, altitud: 1027 m

Observación

El informe se hizo hace 1 hora y 23 minutos, a las 23:50 UTC
Viento 2 kt con dirección variable
Temperatura -2°C
Humedad 74%
Presión 1013 hPa
Visibilidad 10 km o más
sin nubes por debajo de 1500 m y sin presencia de cumulonimbus.

METAR: LSGC 022350Z AUTO VRB02KT CAVOK M02/M06 Q1013

Hora: 03:13 (01:13 UTC)

Pronóstico

El informe se hizo hace 10 horas y 48 minutos, a las 14:25 UTC
Pronóstico válido del 02 a las 15 UTC al 02 a las 24 UTC
Viento 6 kt del oeste
Visibilidad 10 km o más
Nubes dispersas a una altura de 4000 ft
Evolucionando progresivamente
del 02 a las 17 UTC al 02 a las 19 UTC
Visibilidad 10 km o más
sin nubes por debajo de 1500 m y sin presencia de cumulonimbus.

TAF: LSGC 021425Z 0215/0224 28006KT 9999 SCT040 BECMG 0217/0219 CAVOK

Observaciones y pronósticos meteorológicos de más de 4000 aeropuertos (mensajes METAR y TAF).

Los puntos amarillos y rojos representan las estaciones disponibles.

Ponga el ratón en el punto deseado para ver el nombre de la estación.

Haga clic para ver las observaciones y los pronósticos meteorológicos.

Para cambiar el mapa : haga clic en los botones verdes con una cruz de color negro para hacer un zoom, en el botón verde con un guión para alejar o en las flechas verdes para mapas adyacentes.


METAR-TAF: